Terminal Aerodrome Forecast
Issued by NWS

Home | Current Version | Previous Version | Text Only | Print | Product List | Glossary On
Versions: 1 2 3 4 5 6 7 8 9 10 11 12 13 14
521
FTUS45 KVEF 071720
TAFBIH
TAF
KBIH 071720Z 0718/0818 35010KT P6SM BKN200
     FM072100 17007KT P6SM BKN250
     FM080300 34007KT P6SM BKN250=

USA.gov is the U.S. government's official web portal to all federal, state and local government web resources and services.